METAR Data
IDs: Format: Raw Decoded Include TAF

Data at: 1202 UTC 15 Jul 2020

METAR for:KTVY (Tooele Valley Arpt, UT, US)
Text:KTVY 151155Z AUTO 17007KT 10SM CLR 13/06 A3009 RMK AO2
Temperature: 13.0°C ( 55°F)
Dewpoint: 6.0°C ( 43°F) [RH = 62%]
Pressure (altimeter):30.09 inches Hg (1019.0 mb)
Winds:from the S (170 degrees) at 8 MPH (7 knots; 3.6 m/s)
Visibility:10 or more sm (16+ km)
Ceiling:at least 12,000 feet AGL
Clouds:sky clear below 12,000 feet AGL
QC Flag:automated observation with no human augmentation
Text:KTVY 151135Z AUTO 16007KT 10SM CLR 13/06 A3009 RMK AO2
Temperature: 13.0°C ( 55°F)
Dewpoint: 6.0°C ( 43°F) [RH = 62%]
Pressure (altimeter):30.09 inches Hg (1019.0 mb)
Winds:from the SSE (160 degrees) at 8 MPH (7 knots; 3.6 m/s)
Visibility:10 or more sm (16+ km)
Ceiling:at least 12,000 feet AGL
Clouds:sky clear below 12,000 feet AGL
QC Flag:automated observation with no human augmentation
Text:KTVY 151115Z AUTO 17006KT 10SM CLR 13/07 A3009 RMK AO2
Temperature: 13.0°C ( 55°F)
Dewpoint: 7.0°C ( 45°F) [RH = 67%]
Pressure (altimeter):30.09 inches Hg (1019.0 mb)
Winds:from the S (170 degrees) at 7 MPH (6 knots; 3.1 m/s)
Visibility:10 or more sm (16+ km)
Ceiling:at least 12,000 feet AGL
Clouds:sky clear below 12,000 feet AGL
QC Flag:automated observation with no human augmentation
Text:KTVY 151055Z AUTO 17007KT 10SM CLR 14/07 A3009 RMK AO2
Temperature: 14.0°C ( 57°F)
Dewpoint: 7.0°C ( 45°F) [RH = 63%]
Pressure (altimeter):30.09 inches Hg (1019.0 mb)
Winds:from the S (170 degrees) at 8 MPH (7 knots; 3.6 m/s)
Visibility:10 or more sm (16+ km)
Ceiling:at least 12,000 feet AGL
Clouds:sky clear below 12,000 feet AGL
QC Flag:automated observation with no human augmentation
Text:KTVY 151035Z AUTO 17007KT 10SM CLR 14/07 A3008 RMK AO2
Temperature: 14.0°C ( 57°F)
Dewpoint: 7.0°C ( 45°F) [RH = 63%]
Pressure (altimeter):30.08 inches Hg (1018.7 mb)
Winds:from the S (170 degrees) at 8 MPH (7 knots; 3.6 m/s)
Visibility:10 or more sm (16+ km)
Ceiling:at least 12,000 feet AGL
Clouds:sky clear below 12,000 feet AGL
QC Flag:automated observation with no human augmentation
Text:KTVY 151015Z AUTO 17005KT 10SM CLR 15/07 A3008 RMK AO2
Temperature: 15.0°C ( 59°F)
Dewpoint: 7.0°C ( 45°F) [RH = 59%]
Pressure (altimeter):30.08 inches Hg (1018.7 mb)
Winds:from the S (170 degrees) at 6 MPH (5 knots; 2.6 m/s)
Visibility:10 or more sm (16+ km)
Ceiling:at least 12,000 feet AGL
Clouds:sky clear below 12,000 feet AGL
QC Flag:automated observation with no human augmentation
Text:KTVY 150955Z AUTO 18007KT 10SM CLR 16/07 A3008 RMK AO2
Temperature: 16.0°C ( 61°F)
Dewpoint: 7.0°C ( 45°F) [RH = 55%]
Pressure (altimeter):30.08 inches Hg (1018.7 mb)
Winds:from the S (180 degrees) at 8 MPH (7 knots; 3.6 m/s)
Visibility:10 or more sm (16+ km)
Ceiling:at least 12,000 feet AGL
Clouds:sky clear below 12,000 feet AGL
QC Flag:automated observation with no human augmentation
Text:KTVY 150935Z AUTO 17007KT 10SM CLR 15/07 A3008 RMK AO2
Temperature: 15.0°C ( 59°F)
Dewpoint: 7.0°C ( 45°F) [RH = 59%]
Pressure (altimeter):30.08 inches Hg (1018.7 mb)
Winds:from the S (170 degrees) at 8 MPH (7 knots; 3.6 m/s)
Visibility:10 or more sm (16+ km)
Ceiling:at least 12,000 feet AGL
Clouds:sky clear below 12,000 feet AGL
QC Flag:automated observation with no human augmentation
Text:KTVY 150915Z AUTO 17007KT 10SM CLR 16/07 A3007 RMK AO2
Temperature: 16.0°C ( 61°F)
Dewpoint: 7.0°C ( 45°F) [RH = 55%]
Pressure (altimeter):30.07 inches Hg (1018.4 mb)
Winds:from the S (170 degrees) at 8 MPH (7 knots; 3.6 m/s)
Visibility:10 or more sm (16+ km)
Ceiling:at least 12,000 feet AGL
Clouds:sky clear below 12,000 feet AGL
QC Flag:automated observation with no human augmentation
Text:KTVY 150855Z AUTO 18007KT 10SM CLR 16/07 A3007 RMK AO2
Temperature: 16.0°C ( 61°F)
Dewpoint: 7.0°C ( 45°F) [RH = 55%]
Pressure (altimeter):30.07 inches Hg (1018.4 mb)
Winds:from the S (180 degrees) at 8 MPH (7 knots; 3.6 m/s)
Visibility:10 or more sm (16+ km)
Ceiling:at least 12,000 feet AGL
Clouds:sky clear below 12,000 feet AGL
QC Flag:automated observation with no human augmentation
Text:KTVY 150835Z AUTO 19005KT 10SM CLR 17/08 A3007 RMK AO2
Temperature: 17.0°C ( 63°F)
Dewpoint: 8.0°C ( 46°F) [RH = 55%]
Pressure (altimeter):30.07 inches Hg (1018.4 mb)
Winds:from the S (190 degrees) at 6 MPH (5 knots; 2.6 m/s)
Visibility:10 or more sm (16+ km)
Ceiling:at least 12,000 feet AGL
Clouds:sky clear below 12,000 feet AGL
QC Flag:automated observation with no human augmentation
Text:KTVY 150815Z AUTO 18003KT 10SM CLR 17/08 A3007 RMK AO2
Temperature: 17.0°C ( 63°F)
Dewpoint: 8.0°C ( 46°F) [RH = 55%]
Pressure (altimeter):30.07 inches Hg (1018.4 mb)
Winds:from the S (180 degrees) at 3 MPH (3 knots; 1.5 m/s)
Visibility:10 or more sm (16+ km)
Ceiling:at least 12,000 feet AGL
Clouds:sky clear below 12,000 feet AGL
QC Flag:automated observation with no human augmentation
Text:KTVY 150755Z AUTO 00000KT 10SM CLR 18/09 A3007 RMK AO2
Temperature: 18.0°C ( 64°F)
Dewpoint: 9.0°C ( 48°F) [RH = 56%]
Pressure (altimeter):30.07 inches Hg (1018.4 mb)
Winds:calm
Visibility:10 or more sm (16+ km)
Ceiling:at least 12,000 feet AGL
Clouds:sky clear below 12,000 feet AGL
QC Flag:automated observation with no human augmentation
Text:KTVY 150735Z AUTO 27008KT 10SM CLR 18/10 A3007 RMK AO2
Temperature: 18.0°C ( 64°F)
Dewpoint: 10.0°C ( 50°F) [RH = 59%]
Pressure (altimeter):30.07 inches Hg (1018.4 mb)
Winds:from the W (270 degrees) at 9 MPH (8 knots; 4.1 m/s)
Visibility:10 or more sm (16+ km)
Ceiling:at least 12,000 feet AGL
Clouds:sky clear below 12,000 feet AGL
QC Flag:automated observation with no human augmentation
Text:KTVY 150715Z AUTO 27007KT 10SM CLR 19/10 A3006 RMK AO2
Temperature: 19.0°C ( 66°F)
Dewpoint: 10.0°C ( 50°F) [RH = 56%]
Pressure (altimeter):30.06 inches Hg (1018.0 mb)
Winds:from the W (270 degrees) at 8 MPH (7 knots; 3.6 m/s)
Visibility:10 or more sm (16+ km)
Ceiling:at least 12,000 feet AGL
Clouds:sky clear below 12,000 feet AGL
QC Flag:automated observation with no human augmentation